Time;durP1;ratioP1;P1;durP2;ratioP2;P2;SDS_P1;SDS_P2;PMS_P1;PMS_P2;Temp;Humidity;BMP_temperature;BMP_pressure;BME280_temperature;BME280_humidity;BME280_pressure;Samples;Min_cycle;Max_cycle;Signal;HPM_P1;HPM_P2
2023/09/27 00:01:15;;;;;;;9.93;5.05;;;14.30;99.90;;;;;;4939104;28;20131;-60
2023/09/27 00:03:42;;;;;;;7.88;4.25;;;14.30;99.90;;;;;;4968528;28;20515;-60
2023/09/27 00:06:08;;;;;;;10.68;4.47;;;14.30;99.90;;;;;;4967929;28;20038;-60
2023/09/27 00:08:34;;;;;;;8.73;5.18;;;14.30;99.90;;;;;;4952391;28;20046;-60
2023/09/27 00:11:00;;;;;;;11.82;4.72;;;14.30;99.90;;;;;;4967850;28;20043;-60
2023/09/27 00:13:25;;;;;;;9.27;5.70;;;14.20;99.90;;;;;;4968445;28;20046;-60
2023/09/27 00:15:51;;;;;;;7.32;4.60;;;14.20;99.90;;;;;;4968517;28;20043;-60
2023/09/27 00:18:17;;;;;;;8.38;4.93;;;14.20;99.90;;;;;;4950704;28;20518;-60
2023/09/27 00:20:43;;;;;;;8.40;4.72;;;14.10;99.90;;;;;;4968170;28;20043;-60
2023/09/27 00:23:09;;;;;;;9.52;4.72;;;14.10;99.90;;;;;;4968960;28;20596;-60
2023/09/27 00:25:36;;;;;;;10.43;5.82;;;14.10;99.90;;;;;;4967506;28;20043;-59
2023/09/27 00:28:01;;;;;;;10.00;5.70;;;14.10;99.90;;;;;;4968357;28;20031;-60
2023/09/27 00:30:27;;;;;;;8.68;4.85;;;14.10;99.90;;;;;;4968095;28;20394;-60
2023/09/27 00:32:53;;;;;;;12.30;5.45;;;14.10;99.90;;;;;;4967814;28;20058;-60
2023/09/27 00:35:20;;;;;;;6.90;4.10;;;14.10;99.90;;;;;;4968290;28;20394;-59
2023/09/27 00:37:47;;;;;;;9.45;5.30;;;14.10;99.90;;;;;;4969182;28;20533;-60
2023/09/27 00:40:14;;;;;;;8.13;4.20;;;14.10;99.90;;;;;;4967193;28;20133;-59
2023/09/27 00:42:40;;;;;;;12.02;5.03;;;14.20;99.90;;;;;;4968085;28;20053;-60
2023/09/27 00:45:07;;;;;;;9.25;4.53;;;14.10;99.90;;;;;;4969222;28;20046;-60
2023/09/27 00:47:34;;;;;;;9.32;4.90;;;14.10;99.90;;;;;;4949195;28;20630;-60
2023/09/27 00:50:01;;;;;;;9.00;4.40;;;14.20;99.90;;;;;;4948939;28;20046;-59
2023/09/27 00:52:27;;;;;;;9.23;5.00;;;14.20;99.90;;;;;;4949765;28;20079;-60
2023/09/27 00:54:53;;;;;;;11.68;5.80;;;14.20;99.90;;;;;;4968031;28;20074;-59
2023/09/27 00:57:19;;;;;;;11.35;5.32;;;14.20;99.90;;;;;;4961863;28;20101;-59
2023/09/27 00:59:45;;;;;;;7.25;4.53;;;14.20;99.90;;;;;;4952192;28;20039;-60
2023/09/27 01:02:12;;;;;;;8.35;4.28;;;14.20;99.90;;;;;;4947812;28;20043;-59
2023/09/27 01:04:40;;;;;;;9.00;4.78;;;14.20;99.90;;;;;;4949973;28;20381;-59
2023/09/27 01:07:08;;;;;;;7.38;4.10;;;14.20;99.90;;;;;;4947818;29;20054;-60
2023/09/27 01:09:33;;;;;;;8.38;4.63;;;14.10;99.90;;;;;;4948330;28;20492;-59
2023/09/27 01:11:59;;;;;;;11.43;4.90;;;14.10;99.90;;;;;;4951105;28;20050;-59
2023/09/27 01:14:26;;;;;;;8.63;4.55;;;14.10;99.90;;;;;;4967071;28;20057;-60
2023/09/27 01:16:51;;;;;;;8.30;4.45;;;14.10;99.90;;;;;;4967780;28;20038;-60
2023/09/27 01:19:17;;;;;;;6.55;4.28;;;14.10;99.90;;;;;;4967549;28;20498;-60
2023/09/27 01:21:43;;;;;;;7.22;3.97;;;14.10;99.90;;;;;;4966910;28;20043;-60
2023/09/27 01:24:11;;;;;;;7.72;4.63;;;14.10;99.90;;;;;;4951405;28;20043;-60
2023/09/27 01:26:38;;;;;;;7.55;4.70;;;14.00;99.90;;;;;;4966390;28;20047;-60
2023/09/27 01:29:04;;;;;;;6.60;4.22;;;14.00;99.90;;;;;;4967559;28;20038;-60
2023/09/27 01:31:31;;;;;;;8.68;4.07;;;14.00;99.90;;;;;;4970637;28;20462;-59
2023/09/27 01:33:57;;;;;;;6.63;3.67;;;14.00;99.90;;;;;;4970781;28;20045;-59
2023/09/27 01:36:23;;;;;;;12.07;4.95;;;14.00;99.90;;;;;;4971331;28;20121;-60
2023/09/27 01:38:48;;;;;;;9.30;4.38;;;14.00;99.90;;;;;;4970653;28;20054;-60
2023/09/27 01:41:14;;;;;;;9.65;5.47;;;14.00;99.90;;;;;;4970043;28;20049;-60
2023/09/27 01:43:40;;;;;;;8.18;3.88;;;13.90;99.90;;;;;;4970453;28;20038;-60
2023/09/27 01:46:06;;;;;;;7.00;3.97;;;13.90;99.90;;;;;;4964899;28;20039;-60
2023/09/27 01:48:32;;;;;;;7.07;4.07;;;13.90;99.90;;;;;;4935469;29;20142;-59
2023/09/27 01:50:57;;;;;;;7.97;3.83;;;13.90;99.90;;;;;;4950667;28;20047;-59
2023/09/27 01:53:23;;;;;;;6.75;4.10;;;13.90;99.90;;;;;;4956410;28;20042;-60
2023/09/27 01:55:49;;;;;;;9.90;5.00;;;13.90;99.90;;;;;;4952891;28;20050;-60
2023/09/27 01:58:15;;;;;;;10.00;5.28;;;13.90;99.90;;;;;;4961038;28;20122;-59
2023/09/27 02:00:40;;;;;;;7.10;4.35;;;13.90;99.90;;;;;;4951010;29;20048;-60
2023/09/27 02:03:06;;;;;;;9.98;4.50;;;13.90;99.90;;;;;;4950390;29;20035;-59
2023/09/27 02:05:32;;;;;;;8.15;4.70;;;13.90;99.90;;;;;;4952550;28;20068;-60
2023/09/27 02:07:58;;;;;;;7.05;3.85;;;13.90;99.90;;;;;;4953159;28;20047;-59
2023/09/27 02:10:24;;;;;;;9.68;4.32;;;13.90;99.90;;;;;;4969695;28;20042;-59
2023/09/27 02:12:50;;;;;;;10.00;4.68;;;13.90;99.90;;;;;;4970212;28;20045;-59
2023/09/27 02:15:17;;;;;;;5.38;3.75;;;13.80;99.90;;;;;;4971399;28;20118;-60
2023/09/27 02:17:43;;;;;;;7.63;3.78;;;13.80;99.90;;;;;;4969942;28;20078;-59
2023/09/27 02:20:11;;;;;;;7.78;4.70;;;13.80;99.90;;;;;;4970076;28;20487;-60
2023/09/27 02:22:38;;;;;;;10.43;4.82;;;13.70;99.90;;;;;;4971328;28;20101;-59
2023/09/27 02:25:09;;;;;;;10.13;4.75;;;13.70;99.90;;;;;;4969688;28;20081;-59
2023/09/27 02:27:35;;;;;;;7.32;3.75;;;13.70;99.90;;;;;;4953706;28;20100;-60
2023/09/27 02:30:01;;;;;;;9.15;4.68;;;13.60;99.90;;;;;;4969080;28;20050;-59
2023/09/27 02:32:27;;;;;;;7.45;3.80;;;13.60;99.90;;;;;;4969280;28;20043;-59
2023/09/27 02:34:53;;;;;;;8.30;3.90;;;13.50;99.90;;;;;;4953798;28;20061;-59
2023/09/27 02:37:20;;;;;;;5.97;3.58;;;13.50;99.90;;;;;;4969830;28;20071;-59
2023/09/27 02:39:46;;;;;;;7.68;3.58;;;13.40;99.90;;;;;;4969040;28;20050;-60
2023/09/27 02:42:12;;;;;;;7.82;4.75;;;13.40;99.90;;;;;;4952591;28;20138;-59
2023/09/27 02:44:38;;;;;;;8.73;3.88;;;13.30;99.90;;;;;;4969658;28;20039;-59
2023/09/27 02:47:06;;;;;;;6.97;4.05;;;13.30;99.90;;;;;;4970481;28;20038;-59
2023/09/27 02:49:35;;;;;;;8.30;4.20;;;13.20;99.90;;;;;;4969078;28;20100;-59
2023/09/27 02:52:01;;;;;;;5.70;3.57;;;13.20;99.90;;;;;;4934382;28;20553;-59
2023/09/27 02:54:27;;;;;;;6.07;3.25;;;13.00;99.90;;;;;;4965334;28;20286;-59
2023/09/27 02:56:53;;;;;;;7.82;3.90;;;12.90;99.90;;;;;;4963425;28;20051;-59
2023/09/27 02:59:19;;;;;;;6.65;4.68;;;12.80;99.90;;;;;;4955393;28;20782;-59
2023/09/27 03:01:45;;;;;;;8.02;4.22;;;12.80;99.90;;;;;;4966329;28;20035;-59
2023/09/27 03:04:11;;;;;;;12.63;4.95;;;12.90;99.90;;;;;;4950539;28;20742;-59
2023/09/27 03:06:41;;;;;;;7.65;4.40;;;12.80;99.90;;;;;;4968812;28;20070;-59
2023/09/27 03:09:08;;;;;;;9.07;4.53;;;12.90;99.90;;;;;;4970752;28;20101;-59
2023/09/27 03:11:35;;;;;;;6.90;4.35;;;12.90;99.90;;;;;;4970703;28;20151;-59
2023/09/27 03:14:01;;;;;;;9.60;4.63;;;12.90;99.90;;;;;;4970243;28;20042;-59
2023/09/27 03:16:27;;;;;;;9.27;4.60;;;12.90;99.90;;;;;;4969300;28;20121;-59
2023/09/27 03:18:54;;;;;;;9.45;4.70;;;12.90;99.90;;;;;;4969477;28;20164;-59
2023/09/27 03:21:20;;;;;;;7.70;4.35;;;12.90;99.90;;;;;;4968612;28;20055;-59
2023/09/27 03:23:47;;;;;;;8.65;5.68;;;12.90;99.90;;;;;;4969095;28;20078;-59
2023/09/27 03:26:13;;;;;;;7.47;4.28;;;12.90;99.90;;;;;;4970366;28;20545;-59
2023/09/27 03:28:38;;;;;;;9.23;5.20;;;12.90;99.90;;;;;;4969866;28;20046;-59
2023/09/27 03:31:05;;;;;;;8.93;4.43;;;12.90;99.90;;;;;;4969905;28;20108;-59
2023/09/27 03:33:31;;;;;;;6.60;4.10;;;12.90;99.90;;;;;;4968503;28;20042;-59
2023/09/27 03:35:57;;;;;;;9.82;4.82;;;12.80;99.90;;;;;;4968319;28;20050;-59
2023/09/27 03:38:24;;;;;;;9.05;4.90;;;12.80;99.90;;;;;;4968760;28;20518;-59
2023/09/27 03:40:51;;;;;;;6.50;4.43;;;12.80;99.90;;;;;;4969525;28;20050;-59
2023/09/27 03:43:17;;;;;;;8.80;4.68;;;12.80;99.90;;;;;;4970077;28;20503;-59
2023/09/27 03:45:43;;;;;;;8.93;4.78;;;12.70;99.90;;;;;;4968754;28;20129;-59
2023/09/27 03:48:09;;;;;;;9.27;4.95;;;12.70;99.90;;;;;;4969634;28;20114;-59
2023/09/27 03:50:35;;;;;;;7.97;4.30;;;12.70;99.90;;;;;;4968976;28;20059;-59
2023/09/27 03:53:00;;;;;;;7.40;4.10;;;12.70;99.90;;;;;;4968442;28;20074;-59
2023/09/27 03:55:27;;;;;;;7.95;4.25;;;12.70;99.90;;;;;;4968035;28;20418;-59
2023/09/27 03:57:53;;;;;;;8.00;4.38;;;12.60;99.90;;;;;;4961627;28;20051;-59
2023/09/27 04:00:19;;;;;;;8.13;5.00;;;12.60;99.90;;;;;;4949333;29;20043;-59
2023/09/27 04:02:46;;;;;;;12.88;4.28;;;12.60;99.90;;;;;;4964994;28;20383;-59
2023/09/27 04:05:13;;;;;;;5.82;4.03;;;12.60;99.90;;;;;;4933335;29;20043;-59
2023/09/27 04:07:39;;;;;;;8.07;4.45;;;12.50;99.90;;;;;;4965419;28;20040;-59
2023/09/27 04:10:07;;;;;;;7.68;4.60;;;12.40;99.90;;;;;;4948909;29;20140;-59
2023/09/27 04:12:34;;;;;;;8.55;4.35;;;12.40;99.90;;;;;;4949140;28;20062;-59
2023/09/27 04:15:00;;;;;;;8.85;5.03;;;12.40;99.90;;;;;;4949063;28;20047;-59
2023/09/27 04:17:26;;;;;;;9.52;5.00;;;12.40;99.90;;;;;;4965738;28;20047;-59
2023/09/27 04:19:54;;;;;;;7.85;4.50;;;12.40;99.90;;;;;;4969660;28;20042;-59
2023/09/27 04:22:20;;;;;;;7.13;4.28;;;12.40;99.90;;;;;;4968232;28;20042;-59
2023/09/27 04:24:46;;;;;;;6.22;3.88;;;12.40;99.90;;;;;;4967608;28;20483;-59
2023/09/27 04:27:12;;;;;;;10.15;5.50;;;12.40;99.90;;;;;;4968462;28;20054;-60
2023/09/27 04:29:39;;;;;;;7.85;5.03;;;12.40;99.90;;;;;;4968123;28;20039;-60
2023/09/27 04:32:05;;;;;;;8.93;3.92;;;12.40;99.90;;;;;;4967819;28;20414;-60
2023/09/27 04:34:31;;;;;;;9.82;4.78;;;12.40;99.90;;;;;;4967521;28;20836;-60
2023/09/27 04:36:56;;;;;;;11.85;5.35;;;12.50;99.90;;;;;;4967205;28;20142;-60
2023/09/27 04:39:27;;;;;;;8.88;4.65;;;12.40;99.90;;;;;;4967840;28;20475;-60
2023/09/27 04:41:53;;;;;;;9.48;4.63;;;12.40;99.90;;;;;;4968050;28;20442;-60
2023/09/27 04:44:19;;;;;;;10.73;5.50;;;12.40;99.90;;;;;;4951411;28;20100;-60
2023/09/27 04:46:45;;;;;;;9.13;4.88;;;12.40;99.90;;;;;;4967846;28;20046;-60
2023/09/27 04:49:11;;;;;;;8.63;4.80;;;12.40;99.90;;;;;;4968225;28;20078;-60
2023/09/27 04:51:37;;;;;;;8.73;4.68;;;12.40;99.90;;;;;;4968615;28;20100;-60
2023/09/27 04:54:03;;;;;;;8.10;4.75;;;12.40;99.90;;;;;;4967865;28;20553;-60
2023/09/27 04:56:32;;;;;;;7.40;4.28;;;12.40;99.90;;;;;;4962474;28;20077;-60
2023/09/27 04:59:08;;;;;;;10.67;5.53;;;12.40;99.90;;;;;;4956356;28;20590;-60
2023/09/27 05:01:33;;;;;;;8.35;4.63;;;12.50;99.90;;;;;;4964434;28;20047;-60
2023/09/27 05:03:59;;;;;;;10.20;5.43;;;12.50;99.90;;;;;;4947927;29;20046;-60
2023/09/27 05:06:25;;;;;;;11.52;5.80;;;12.50;99.90;;;;;;4949293;28;20384;-60
2023/09/27 05:08:51;;;;;;;11.32;4.68;;;12.50;99.90;;;;;;4948404;29;20054;-60
2023/09/27 05:11:20;;;;;;;9.68;5.32;;;12.50;99.90;;;;;;4949732;28;20048;-60
2023/09/27 05:13:46;;;;;;;10.05;5.07;;;12.50;99.90;;;;;;4965645;28;20043;-60
2023/09/27 05:16:12;;;;;;;8.57;4.63;;;12.50;99.90;;;;;;4951514;28;20049;-60
2023/09/27 05:18:38;;;;;;;8.10;4.63;;;12.50;99.90;;;;;;4967449;28;20051;-60
2023/09/27 05:21:06;;;;;;;6.55;3.95;;;12.40;99.90;;;;;;4951081;28;20043;-60
2023/09/27 05:23:32;;;;;;;8.40;5.07;;;12.40;99.90;;;;;;4967654;28;20050;-60
2023/09/27 05:25:58;;;;;;;6.55;4.93;;;12.40;99.90;;;;;;4966703;28;20042;-60
2023/09/27 05:28:23;;;;;;;7.22;3.88;;;12.30;99.90;;;;;;4967464;28;20113;-60
2023/09/27 05:30:49;;;;;;;13.82;4.93;;;12.30;99.90;;;;;;4967375;28;20048;-60
2023/09/27 05:33:17;;;;;;;6.80;4.15;;;12.20;99.90;;;;;;4967979;28;20047;-60
2023/09/27 05:35:43;;;;;;;7.43;4.35;;;12.20;99.90;;;;;;4968622;28;20046;-60
2023/09/27 05:38:09;;;;;;;10.32;4.63;;;12.20;99.90;;;;;;4965110;28;20042;-60
2023/09/27 05:40:35;;;;;;;8.32;4.85;;;12.20;99.90;;;;;;4966723;28;20051;-60
2023/09/27 05:43:02;;;;;;;9.13;4.70;;;12.20;99.90;;;;;;4967274;28;20459;-60
2023/09/27 05:45:28;;;;;;;7.13;4.45;;;12.20;99.90;;;;;;4967305;28;20118;-60
2023/09/27 05:47:54;;;;;;;9.48;4.95;;;12.20;99.90;;;;;;4966655;28;20114;-60
2023/09/27 05:50:20;;;;;;;10.75;5.30;;;12.20;99.90;;;;;;4968566;28;20519;-60
2023/09/27 05:52:46;;;;;;;11.65;5.30;;;12.20;99.90;;;;;;4967110;28;20137;-60
2023/09/27 05:55:14;;;;;;;7.32;5.05;;;12.30;99.90;;;;;;4966863;28;20391;-60
2023/09/27 05:57:40;;;;;;;9.80;4.95;;;12.30;99.90;;;;;;4960648;28;20096;-60
2023/09/27 06:00:46;;;;;;;9.05;5.15;;;12.30;99.90;;;;;;4947831;29;20035;-60
2023/09/27 06:03:02;;;;;;;6.07;3.70;;;12.20;99.90;;;;;;4950030;28;20462;-60
2023/09/27 06:05:27;;;;;;;7.25;3.88;;;12.20;99.90;;;;;;4932070;29;20081;-60
2023/09/27 06:07:53;;;;;;;6.32;3.75;;;12.20;99.90;;;;;;4948041;28;20368;-60
2023/09/27 06:10:19;;;;;;;6.20;4.28;;;12.10;99.90;;;;;;4967028;28;20088;-60
2023/09/27 06:12:45;;;;;;;12.82;4.65;;;12.10;99.90;;;;;;4968198;28;20054;-60
2023/09/27 06:15:12;;;;;;;6.35;4.22;;;12.10;99.90;;;;;;4966455;28;20039;-60
2023/09/27 06:17:38;;;;;;;7.38;3.83;;;12.10;99.90;;;;;;4970360;28;20081;-60
2023/09/27 06:20:05;;;;;;;9.98;4.35;;;12.10;99.90;;;;;;4970155;28;20043;-60
2023/09/27 06:22:31;;;;;;;8.57;4.97;;;12.10;99.90;;;;;;4969136;28;20100;-60
2023/09/27 06:24:57;;;;;;;9.65;4.97;;;12.10;99.90;;;;;;4970033;28;20051;-60
2023/09/27 06:27:22;;;;;;;9.57;5.38;;;12.20;99.90;;;;;;4970160;28;20043;-60
2023/09/27 06:29:48;;;;;;;11.10;5.40;;;12.30;99.90;;;;;;4969608;28;20084;-60
2023/09/27 06:32:14;;;;;;;13.23;6.15;;;12.30;99.90;;;;;;4970108;28;20387;-60
2023/09/27 06:34:40;;;;;;;14.95;5.45;;;12.40;99.90;;;;;;4969970;28;20104;-60
2023/09/27 06:37:07;;;;;;;10.35;5.65;;;12.50;99.90;;;;;;4969526;28;20129;-60
2023/09/27 06:39:33;;;;;;;11.60;6.50;;;12.60;99.90;;;;;;4969485;28;20411;-60
2023/09/27 06:41:58;;;;;;;10.75;6.00;;;12.80;99.90;;;;;;4968667;28;20054;-60
2023/09/27 06:44:24;;;;;;;13.77;5.93;;;12.90;99.90;;;;;;4969151;28;20046;-60
2023/09/27 06:46:52;;;;;;;15.70;6.28;;;13.00;99.90;;;;;;4969587;28;20103;-60
2023/09/27 06:49:18;;;;;;;14.23;6.03;;;13.10;99.90;;;;;;4969641;28;20082;-60
2023/09/27 06:51:44;;;;;;;13.35;6.95;;;13.20;99.90;;;;;;4969244;28;20200;-60
2023/09/27 06:54:10;;;;;;;9.15;5.97;;;13.30;99.90;;;;;;4969174;28;20039;-60
2023/09/27 06:56:36;;;;;;;13.07;6.22;;;13.40;99.90;;;;;;4963166;28;20181;-60
2023/09/27 06:59:02;;;;;;;12.98;6.25;;;13.50;99.90;;;;;;4959224;28;20039;-60
2023/09/27 07:01:28;;;;;;;9.43;5.75;;;13.60;99.90;;;;;;4966233;28;20054;-60
2023/09/27 07:03:55;;;;;;;14.15;6.32;;;13.70;99.90;;;;;;4949582;29;20039;-60
2023/09/27 07:06:21;;;;;;;11.15;5.90;;;13.80;99.90;;;;;;4969811;28;20499;-60
2023/09/27 07:08:52;;;;;;;10.15;5.50;;;13.80;99.90;;;;;;4970722;28;20042;-61
2023/09/27 07:11:19;;;;;;;15.18;7.47;;;13.90;99.90;;;;;;4968850;28;20078;-60
2023/09/27 07:13:45;;;;;;;15.57;7.45;;;14.00;99.90;;;;;;4969393;28;20495;-60
2023/09/27 07:16:38;;;;;;;11.30;6.00;;;14.10;99.90;;;;;;4969880;28;20042;-60
2023/09/27 07:19:05;;;;;;;10.50;5.70;;;14.10;99.90;;;;;;4973253;28;20058;-60
2023/09/27 07:21:31;;;;;;;15.15;6.90;;;14.20;99.90;;;;;;4969196;28;20050;-60
2023/09/27 07:23:57;;;;;;;11.23;6.03;;;14.30;99.90;;;;;;4970108;28;20395;-60
2023/09/27 07:26:23;;;;;;;12.73;6.45;;;14.40;99.90;;;;;;4952270;28;20054;-60
2023/09/27 07:28:50;;;;;;;11.80;6.07;;;14.50;99.90;;;;;;4970112;28;20116;-60
2023/09/27 07:31:16;;;;;;;11.05;6.20;;;14.60;99.90;;;;;;4968725;28;20047;-60
2023/09/27 07:33:54;;;;;;;11.38;6.53;;;14.60;99.90;;;;;;4967903;28;20050;-60
2023/09/27 07:36:22;;;;;;;16.85;6.90;;;14.70;99.90;;;;;;4970424;28;20047;-60
2023/09/27 07:38:48;;;;;;;13.45;6.80;;;14.80;99.90;;;;;;4969427;28;20090;-60
2023/09/27 07:41:17;;;;;;;11.70;5.78;;;14.90;99.90;;;;;;4968938;28;20047;-60
2023/09/27 07:43:43;;;;;;;13.17;6.33;;;14.90;99.90;;;;;;4968472;28;20066;-60
2023/09/27 07:46:12;;;;;;;13.43;6.70;;;15.00;99.90;;;;;;4969304;28;20051;-60
2023/09/27 07:48:39;;;;;;;12.65;7.35;;;15.10;99.90;;;;;;4967921;28;20193;-60
2023/09/27 07:51:11;;;;;;;11.23;6.65;;;15.20;99.90;;;;;;4969017;28;20118;-60
2023/09/27 07:53:37;;;;;;;11.85;6.18;;;15.40;99.90;;;;;;4967607;28;20050;-60
2023/09/27 07:56:04;;;;;;;14.85;7.10;;;15.50;99.90;;;;;;4967680;28;20047;-60
2023/09/27 07:58:29;;;;;;;14.20;6.63;;;15.60;99.90;;;;;;4958002;28;20094;-61
2023/09/27 08:00:55;;;;;;;15.73;7.18;;;15.80;99.90;;;;;;4953814;28;20043;-61
2023/09/27 08:03:21;;;;;;;11.52;6.68;;;15.90;99.90;;;;;;4968482;28;20034;-61
2023/09/27 08:05:49;;;;;;;12.65;6.68;;;16.10;99.90;;;;;;4969837;28;20395;-62
2023/09/27 08:08:15;;;;;;;12.32;6.50;;;16.20;99.90;;;;;;4969464;28;20043;-61
2023/09/27 08:10:47;;;;;;;13.85;6.47;;;16.30;99.90;;;;;;4968533;28;20499;-62
2023/09/27 08:13:14;;;;;;;12.52;7.43;;;16.50;99.90;;;;;;4968728;28;20105;-61
2023/09/27 08:15:41;;;;;;;13.27;7.00;;;16.60;99.90;;;;;;4968911;28;20031;-61
2023/09/27 08:18:07;;;;;;;11.68;7.00;;;16.90;99.90;;;;;;4968606;28;20127;-62
2023/09/27 08:20:34;;;;;;;12.93;7.25;;;17.10;99.90;;;;;;4968483;28;20046;-61
2023/09/27 08:23:04;;;;;;;13.75;6.18;;;17.40;99.90;;;;;;4969165;28;20071;-61
2023/09/27 08:25:30;;;;;;;10.82;6.30;;;17.60;99.90;;;;;;4968522;28;20042;-62
2023/09/27 08:27:56;;;;;;;13.30;6.32;;;17.70;99.90;;;;;;4951549;28;20539;-61
2023/09/27 08:30:23;;;;;;;12.00;6.18;;;17.70;99.90;;;;;;4968046;28;20043;-61
2023/09/27 08:32:49;;;;;;;11.20;6.95;;;17.80;99.90;;;;;;4952074;28;20053;-61
2023/09/27 08:35:16;;;;;;;13.40;7.20;;;17.90;99.90;;;;;;4967882;28;20092;-61
2023/09/27 08:37:42;;;;;;;10.88;7.30;;;18.20;99.90;;;;;;4968332;28;20042;-61
2023/09/27 08:40:15;;;;;;;12.73;6.65;;;18.50;99.90;;;;;;4968156;28;20057;-61
2023/09/27 08:42:42;;;;;;;13.93;7.03;;;18.80;99.90;;;;;;4967243;28;20086;-62
2023/09/27 08:45:12;;;;;;;10.20;6.78;;;19.10;99.90;;;;;;4969143;28;20427;-61
2023/09/27 08:47:42;;;;;;;14.32;6.97;;;19.30;99.90;;;;;;4967063;28;20054;-62
2023/09/27 08:50:11;;;;;;;10.45;6.25;;;19.60;99.90;;;;;;4968972;28;20035;-62
2023/09/27 08:52:38;;;;;;;11.82;6.97;;;19.90;99.90;;;;;;4967838;28;20086;-62
2023/09/27 08:55:06;;;;;;;10.95;6.10;;;20.00;99.90;;;;;;4967794;28;20046;-61
2023/09/27 08:57:34;;;;;;;13.32;6.78;;;19.90;99.90;;;;;;4962650;28;20050;-61
2023/09/27 09:00:00;;;;;;;10.77;6.50;;;20.00;99.90;;;;;;4948711;28;20126;-63
2023/09/27 09:02:27;;;;;;;11.40;6.35;;;20.50;99.90;;;;;;4964429;28;20075;-62
2023/09/27 09:04:52;;;;;;;11.60;5.18;;;20.90;99.90;;;;;;4949203;28;20035;-63
2023/09/27 09:07:18;;;;;;;9.10;5.75;;;21.10;99.90;;;;;;4947569;29;20049;-63
2023/09/27 09:09:46;;;;;;;10.52;5.40;;;21.30;99.90;;;;;;4963062;28;20074;-63
2023/09/27 09:12:12;;;;;;;14.07;7.30;;;21.30;99.90;;;;;;4967179;28;20476;-62
2023/09/27 09:14:43;;;;;;;18.90;7.13;;;21.50;99.90;;;;;;4967978;28;20047;-63
2023/09/27 09:17:13;;;;;;;12.15;5.90;;;21.40;99.90;;;;;;4967278;28;20451;-62
2023/09/27 09:19:41;;;;;;;14.00;6.78;;;21.50;99.90;;;;;;4951587;28;20104;-62
2023/09/27 09:22:08;;;;;;;10.47;6.13;;;21.90;99.90;;;;;;4967683;28;20566;-62
2023/09/27 09:24:42;;;;;;;11.90;6.10;;;22.10;99.90;;;;;;4979379;28;20347;-63
2023/09/27 09:27:13;;;;;;;10.10;5.13;;;21.80;99.90;;;;;;4967576;28;20118;-62
2023/09/27 09:29:55;;;;;;;10.65;5.45;;;21.40;99.90;;;;;;4967733;28;20054;-62
2023/09/27 09:32:23;;;;;;;9.05;4.60;;;20.90;99.90;;;;;;4951211;28;20055;-62
2023/09/27 09:34:55;;;;;;;9.45;5.50;;;20.60;99.90;;;;;;4967532;28;20454;-62
2023/09/27 09:37:29;;;;;;;12.88;5.50;;;20.30;99.90;;;;;;4951577;28;20053;-62
2023/09/27 09:40:14;;;;;;;8.95;5.00;;;20.10;99.90;;;;;;4966589;28;20059;-62
2023/09/27 09:42:42;;;;;;;9.40;5.00;;;20.20;99.90;;;;;;4968558;28;20058;-62
2023/09/27 09:45:12;;;;;;;11.80;6.32;;;20.50;99.90;;;;;;4950528;28;20047;-62
2023/09/27 09:47:39;;;;;;;8.90;5.70;;;20.80;99.90;;;;;;4967335;28;20078;-62
2023/09/27 09:50:08;;;;;;;6.82;4.07;;;20.90;99.90;;;;;;4968396;28;20057;-63
2023/09/27 09:52:38;;;;;;;7.30;4.13;;;20.80;99.90;;;;;;4953575;28;20506;-64
2023/09/27 09:55:07;;;;;;;9.57;4.68;;;20.60;99.90;;;;;;4954559;28;20046;-63
2023/09/27 09:57:35;;;;;;;8.57;4.75;;;20.40;99.90;;;;;;4964857;28;20043;-62
2023/09/27 10:00:25;;;;;;;8.85;4.25;;;20.30;99.90;;;;;;4952144;28;20039;-62
2023/09/27 10:03:03;;;;;;;9.75;4.85;;;20.20;99.90;;;;;;4951288;29;20051;-62
2023/09/27 10:05:51;;;;;;;9.98;4.38;;;20.20;99.90;;;;;;4961667;28;20043;-62
2023/09/27 10:08:18;;;;;;;8.40;5.05;;;20.20;99.90;;;;;;4954522;28;20031;-61
2023/09/27 10:10:44;;;;;;;8.27;4.18;;;20.20;99.90;;;;;;4971532;28;20055;-62
2023/09/27 10:13:10;;;;;;;10.05;4.35;;;20.10;99.90;;;;;;4970994;28;20074;-62
2023/09/27 10:15:38;;;;;;;7.95;4.47;;;20.00;99.90;;;;;;4969175;28;20502;-62
2023/09/27 10:18:22;;;;;;;7.72;4.47;;;20.00;99.90;;;;;;4971569;28;20038;-61
2023/09/27 10:21:08;;;;;;;8.60;4.80;;;19.90;99.90;;;;;;4954987;28;20050;-61
2023/09/27 10:23:40;;;;;;;11.27;5.22;;;19.80;99.90;;;;;;4951067;28;20116;-61
2023/09/27 10:26:33;;;;;;;8.32;4.38;;;19.80;99.90;;;;;;4952259;28;20043;-61
2023/09/27 10:29:06;;;;;;;11.40;4.10;;;19.80;99.90;;;;;;4951312;28;20064;-61
2023/09/27 10:31:38;;;;;;;7.20;3.22;;;19.90;99.90;;;;;;4950078;28;20121;-62
2023/09/27 10:34:30;;;;;;;8.77;4.28;;;19.90;99.90;;;;;;4949936;28;20399;-61
2023/09/27 10:37:00;;;;;;;5.93;2.75;;;20.00;99.90;;;;;;4950596;28;20047;-61
2023/09/27 10:39:26;;;;;;;6.90;3.35;;;19.90;99.90;;;;;;4951606;28;20074;-61
2023/09/27 10:41:53;;;;;;;7.40;2.70;;;19.90;99.90;;;;;;4949941;28;20055;-61
2023/09/27 10:44:37;;;;;;;6.15;2.97;;;19.90;99.90;;;;;;4950746;28;20043;-61
2023/09/27 10:47:04;;;;;;;6.85;3.10;;;20.00;99.90;;;;;;4951811;28;20122;-61
2023/09/27 10:49:38;;;;;;;6.30;2.70;;;20.00;99.90;;;;;;4953678;28;20501;-61
2023/09/27 10:52:17;;;;;;;8.02;3.33;;;20.10;99.90;;;;;;4969293;28;20104;-61
2023/09/27 10:54:44;;;;;;;7.28;3.70;;;20.10;99.90;;;;;;4968955;28;20557;-61
2023/09/27 10:57:10;;;;;;;7.60;3.15;;;20.10;99.90;;;;;;4963028;28;20126;-61
2023/09/27 10:59:36;;;;;;;7.65;3.58;;;20.10;99.90;;;;;;4954036;28;20062;-61
2023/09/27 11:02:06;;;;;;;7.63;3.25;;;20.20;99.90;;;;;;4961515;28;20043;-61
2023/09/27 11:04:33;;;;;;;7.07;3.15;;;20.20;99.90;;;;;;4970727;28;20053;-61
2023/09/27 11:06:59;;;;;;;6.60;2.67;;;20.20;99.90;;;;;;4971017;28;20399;-61
2023/09/27 11:09:26;;;;;;;7.72;2.65;;;20.20;99.90;;;;;;4969096;28;20066;-62
2023/09/27 11:11:54;;;;;;;5.80;3.10;;;20.10;99.90;;;;;;4969357;28;20054;-62
2023/09/27 11:14:33;;;;;;;10.35;3.30;;;20.10;99.90;;;;;;4969630;28;20054;-62
2023/09/27 11:17:22;;;;;;;5.32;2.63;;;20.10;99.90;;;;;;4970208;28;20053;-61
2023/09/27 11:19:49;;;;;;;5.93;2.63;;;20.20;99.90;;;;;;4969308;28;20046;-62
2023/09/27 11:22:24;;;;;;;6.22;2.58;;;20.20;99.90;;;;;;4953079;28;20126;-61
2023/09/27 11:24:50;;;;;;;4.03;2.40;;;20.30;99.90;;;;;;4969905;28;20043;-64
2023/09/27 11:27:19;;;;;;;8.60;3.55;;;20.40;99.90;;;;;;4969175;28;20038;-62
2023/09/27 11:29:50;;;;;;;5.32;2.80;;;20.50;99.90;;;;;;4953303;28;20104;-61
2023/09/27 11:32:16;;;;;;;6.22;2.92;;;20.60;99.90;;;;;;4970343;28;20491;-62
2023/09/27 11:34:42;;;;;;;5.88;3.08;;;20.60;99.90;;;;;;4969181;28;20058;-63
2023/09/27 11:37:17;;;;;;;9.90;2.80;;;20.70;99.90;;;;;;4968469;28;20046;-61
2023/09/27 11:39:54;;;;;;;7.03;2.70;;;20.60;99.90;;;;;;4968741;28;20207;-62
2023/09/27 11:42:25;;;;;;;8.07;3.75;;;20.60;99.90;;;;;;4952793;28;20054;-61
2023/09/27 11:45:08;;;;;;;6.53;3.05;;;20.70;99.90;;;;;;4969714;28;20042;-61
2023/09/27 11:47:50;;;;;;;7.95;3.30;;;20.80;99.90;;;;;;4968997;28;20062;-61
2023/09/27 11:50:17;;;;;;;5.28;3.42;;;20.90;99.90;;;;;;4970391;28;20509;-61
2023/09/27 11:52:43;;;;;;;8.45;4.07;;;21.20;99.90;;;;;;4967855;28;20051;-62
2023/09/27 11:55:10;;;;;;;6.65;3.67;;;21.70;99.90;;;;;;4950049;28;20079;-61
2023/09/27 11:57:36;;;;;;;7.75;3.35;;;22.50;99.90;;;;;;4959596;28;20050;-62
2023/09/27 12:00:05;;;;;;;5.68;3.28;;;22.80;99.90;;;;;;4969248;28;20111;-61
2023/09/27 12:02:33;;;;;;;6.32;3.20;;;22.70;99.90;;;;;;4968636;28;20495;-61
2023/09/27 12:05:00;;;;;;;5.85;3.50;;;22.50;99.90;;;;;;4969312;28;20078;-61
2023/09/27 12:07:27;;;;;;;8.23;3.47;;;22.40;99.90;;;;;;4969889;28;20050;-61
2023/09/27 12:09:54;;;;;;;7.38;3.38;;;22.40;99.90;;;;;;4968570;28;20128;-62
2023/09/27 12:12:20;;;;;;;5.25;2.53;;;22.30;99.90;;;;;;4968093;28;20043;-61
2023/09/27 12:14:46;;;;;;;6.57;3.47;;;22.20;99.90;;;;;;4952455;28;20494;-62
2023/09/27 12:17:12;;;;;;;9.57;3.53;;;22.20;99.90;;;;;;4969621;28;20084;-62
2023/09/27 12:19:38;;;;;;;7.88;3.17;;;22.30;99.90;;;;;;4962754;28;20551;-61
2023/09/27 12:22:04;;;;;;;7.25;3.63;;;22.30;99.90;;;;;;4949112;28;20053;-61
2023/09/27 12:24:31;;;;;;;6.05;2.92;;;22.50;99.90;;;;;;4948932;29;20039;-62
2023/09/27 12:26:56;;;;;;;5.22;3.05;;;22.90;99.90;;;;;;4948791;29;20144;-63
2023/09/27 12:29:22;;;;;;;5.50;2.97;;;23.30;99.90;;;;;;4948969;28;20492;-63
2023/09/27 12:31:48;;;;;;;5.22;3.42;;;23.80;99.90;;;;;;4950267;28;20084;-62
2023/09/27 12:34:14;;;;;;;6.72;3.50;;;24.10;99.90;;;;;;4948439;29;20035;-62
2023/09/27 12:36:40;;;;;;;6.53;3.47;;;24.10;99.90;;;;;;4948920;28;20047;-62
2023/09/27 12:39:05;;;;;;;5.38;2.67;;;23.80;99.90;;;;;;4948580;29;20051;-62
2023/09/27 12:41:31;;;;;;;7.20;3.45;;;23.70;99.90;;;;;;4949489;28;20122;-63
2023/09/27 12:43:57;;;;;;;6.78;2.78;;;23.50;99.90;;;;;;4948737;28;20045;-62
2023/09/27 12:46:24;;;;;;;5.53;2.75;;;23.50;99.90;;;;;;4964597;28;20043;-62